Nearby METAR Reports

 

EGKA - Shoreham-By-Sea, United Kingdom
Distance from station: SW 9mi, 14km
Updated: Thu, 19-Apr-2018 7:50pm BST
NOT Current
Partly Cloudy
Partly Cloudy
 Wind from SW
Wind: SW 2 mph , 4 km/h
Temperature: 13°C
Dew Point: 9°C
Humidity: 77%
Barometer: 1023 hPa
Clouds: Partly Cloudy
Visibility: 6 miles , 9 km
2018/04/19 18:50 EGKA 191850Z 23002KT 9000 NSC 13/09 Q1023
EGKK - London/Gatwick A, United Kingdom
Distance from station: N 14mi, 22km
Updated: Thu, 19-Apr-2018 9:50pm BST
Clear
Clear
 Wind from SSW
Wind: SSW 1 mph , 2 km/h
Temperature: 16°C
Dew Point: 9°C
Humidity: 63%
Barometer: 1023 hPa
Summary: Clear
Visibility: greater than 7 miles , 10 km
2018/04/19 20:50 EGKK 192050Z 20001KT CAVOK 16/09 Q1023
 
EGKB - Biggin Hill, United Kingdom
Distance from station: NNE 28mi, 44km
Updated: Thu, 19-Apr-2018 9:50pm BST
Clear
Clear
 Wind from S
Wind: S 9 mph , 15 km/h
Temperature: 18°C
Dew Point: 9°C
Humidity: 56%
Barometer: 1024 hPa
Summary: Clear
Visibility: greater than 7 miles , 10 km
2018/04/19 20:50 EGKB 192050Z 19008KT CAVOK 18/09 Q1024
EGLF - Farnborough, United Kingdom
Distance from station: NW 35mi, 56km
Updated: Thu, 19-Apr-2018 9:20pm BST
NOT Current
Clear
Clear
 Wind from SSE
Wind: SSE 3 mph , 6 km/h
Temperature: 17°C
Dew Point: 10°C
Humidity: 64%
Barometer: 1023 hPa
Summary: Clear
Visibility: greater than 7 miles , 10 km
2018/04/19 20:20 EGLF 192020Z 15003KT CAVOK 17/10 Q1023
 
EGMD - Lydd Airport, United Kingdom
Distance from station: E 48mi, 77km
Updated: Thu, 19-Apr-2018 9:50pm BST
Clear
Clear
 Wind from calm
Wind: Calm
Temperature: 13°C
Dew Point: 10°C
Humidity: 82%
Barometer: 1023 hPa
Clouds: Clear
Visibility: 6 miles , 10 km
2018/04/19 20:50 EGMD 192050Z AUTO 00000KT 9999 NCD 13/10 Q1023
EGHI - Southampton Wx C, United Kingdom
Distance from station: W 50mi, 82km
Updated: Thu, 19-Apr-2018 9:50pm BST
Clear
Clear
 Wind from calm
Wind: Calm
Temperature: 13°C
Dew Point: 10°C
Humidity: 82%
Barometer: 1023 hPa
Summary: Clear
Visibility: greater than 7 miles , 10 km
2018/04/19 20:50 EGHI 192050Z 00000KT CAVOK 13/10 Q1023

Metar display script from Saratoga-Weather.org